sensor_id;sensor_type;location;lat;lon;timestamp;P1;durP1;ratioP1;P2;durP2;ratioP2
31282;SDS011;17915;52.540;13.604;2023-05-07T00:00:43;20.77;;;13.70;;
31282;SDS011;17915;52.540;13.604;2023-05-07T00:03:09;18.40;;;12.27;;
31282;SDS011;17915;52.540;13.604;2023-05-07T00:05:34;18.10;;;13.00;;
31282;SDS011;17915;52.540;13.604;2023-05-07T00:08:00;19.77;;;12.03;;
31282;SDS011;17915;52.540;13.604;2023-05-07T00:10:25;19.30;;;13.00;;
31282;SDS011;17915;52.540;13.604;2023-05-07T00:12:51;17.07;;;12.60;;
31282;SDS011;17915;52.540;13.604;2023-05-07T00:15:16;18.83;;;14.80;;
31282;SDS011;17915;52.540;13.604;2023-05-07T00:17:41;22.93;;;12.80;;
31282;SDS011;17915;52.540;13.604;2023-05-07T00:20:07;18.37;;;11.63;;
31282;SDS011;17915;52.540;13.604;2023-05-07T00:22:32;18.03;;;12.33;;
31282;SDS011;17915;52.540;13.604;2023-05-07T00:24:58;16.70;;;11.30;;
31282;SDS011;17915;52.540;13.604;2023-05-07T00:27:24;20.67;;;12.07;;
31282;SDS011;17915;52.540;13.604;2023-05-07T00:29:49;19.63;;;13.35;;
31282;SDS011;17915;52.540;13.604;2023-05-07T00:32:15;17.27;;;11.80;;
31282;SDS011;17915;52.540;13.604;2023-05-07T00:34:40;13.57;;;11.93;;
31282;SDS011;17915;52.540;13.604;2023-05-07T00:37:06;47.10;;;13.43;;
31282;SDS011;17915;52.540;13.604;2023-05-07T00:39:32;14.70;;;11.85;;
31282;SDS011;17915;52.540;13.604;2023-05-07T00:41:58;16.27;;;11.13;;
31282;SDS011;17915;52.540;13.604;2023-05-07T00:44:24;15.00;;;11.03;;
31282;SDS011;17915;52.540;13.604;2023-05-07T00:46:50;17.67;;;11.13;;
31282;SDS011;17915;52.540;13.604;2023-05-07T00:49:15;12.77;;;10.33;;
31282;SDS011;17915;52.540;13.604;2023-05-07T00:51:41;22.73;;;11.57;;
31282;SDS011;17915;52.540;13.604;2023-05-07T00:54:06;18.60;;;11.77;;
31282;SDS011;17915;52.540;13.604;2023-05-07T00:56:32;13.75;;;12.23;;
31282;SDS011;17915;52.540;13.604;2023-05-07T00:58:58;15.80;;;12.47;;
31282;SDS011;17915;52.540;13.604;2023-05-07T01:01:24;13.20;;;11.17;;
31282;SDS011;17915;52.540;13.604;2023-05-07T01:03:49;15.23;;;11.37;;
31282;SDS011;17915;52.540;13.604;2023-05-07T01:06:15;15.23;;;12.30;;
31282;SDS011;17915;52.540;13.604;2023-05-07T01:08:41;16.42;;;11.90;;
31282;SDS011;17915;52.540;13.604;2023-05-07T01:11:07;17.35;;;11.98;;
31282;SDS011;17915;52.540;13.604;2023-05-07T01:13:33;22.60;;;11.17;;
31282;SDS011;17915;52.540;13.604;2023-05-07T01:15:59;20.50;;;13.73;;
31282;SDS011;17915;52.540;13.604;2023-05-07T01:18:25;15.10;;;11.73;;
31282;SDS011;17915;52.540;13.604;2023-05-07T01:20:51;19.17;;;13.70;;
31282;SDS011;17915;52.540;13.604;2023-05-07T01:23:17;20.90;;;12.55;;
31282;SDS011;17915;52.540;13.604;2023-05-07T01:25:47;16.63;;;12.20;;
31282;SDS011;17915;52.540;13.604;2023-05-07T01:28:16;15.98;;;12.32;;
31282;SDS011;17915;52.540;13.604;2023-05-07T01:30:45;19.73;;;12.30;;
31282;SDS011;17915;52.540;13.604;2023-05-07T01:33:18;19.02;;;11.43;;
31282;SDS011;17915;52.540;13.604;2023-05-07T01:35:46;13.45;;;10.85;;
31282;SDS011;17915;52.540;13.604;2023-05-07T01:38:14;14.82;;;12.23;;
31282;SDS011;17915;52.540;13.604;2023-05-07T01:40:39;15.50;;;12.15;;
31282;SDS011;17915;52.540;13.604;2023-05-07T01:43:05;21.80;;;13.13;;
31282;SDS011;17915;52.540;13.604;2023-05-07T01:45:31;15.13;;;11.70;;
31282;SDS011;17915;52.540;13.604;2023-05-07T01:47:58;14.50;;;12.18;;
31282;SDS011;17915;52.540;13.604;2023-05-07T01:50:24;15.88;;;11.35;;
31282;SDS011;17915;52.540;13.604;2023-05-07T01:52:50;19.95;;;13.07;;
31282;SDS011;17915;52.540;13.604;2023-05-07T01:55:16;17.30;;;12.13;;
31282;SDS011;17915;52.540;13.604;2023-05-07T01:57:41;34.07;;;16.63;;
31282;SDS011;17915;52.540;13.604;2023-05-07T02:00:07;18.20;;;12.33;;
31282;SDS011;17915;52.540;13.604;2023-05-07T02:02:33;16.40;;;11.63;;
31282;SDS011;17915;52.540;13.604;2023-05-07T02:04:59;19.25;;;12.15;;
31282;SDS011;17915;52.540;13.604;2023-05-07T02:07:26;19.77;;;12.48;;
31282;SDS011;17915;52.540;13.604;2023-05-07T02:09:51;17.17;;;13.30;;
31282;SDS011;17915;52.540;13.604;2023-05-07T02:12:17;18.20;;;12.83;;
31282;SDS011;17915;52.540;13.604;2023-05-07T02:14:42;15.83;;;12.57;;
31282;SDS011;17915;52.540;13.604;2023-05-07T02:17:07;16.63;;;11.93;;
31282;SDS011;17915;52.540;13.604;2023-05-07T02:19:33;16.10;;;12.50;;
31282;SDS011;17915;52.540;13.604;2023-05-07T02:21:58;17.13;;;12.07;;
31282;SDS011;17915;52.540;13.604;2023-05-07T02:24:24;16.93;;;11.80;;
31282;SDS011;17915;52.540;13.604;2023-05-07T02:26:49;13.83;;;11.23;;
31282;SDS011;17915;52.540;13.604;2023-05-07T02:29:15;15.97;;;13.30;;
31282;SDS011;17915;52.540;13.604;2023-05-07T02:31:40;15.37;;;11.87;;
31282;SDS011;17915;52.540;13.604;2023-05-07T02:34:06;28.93;;;13.10;;
31282;SDS011;17915;52.540;13.604;2023-05-07T02:36:31;14.83;;;11.43;;
31282;SDS011;17915;52.540;13.604;2023-05-07T02:38:56;20.00;;;13.57;;
31282;SDS011;17915;52.540;13.604;2023-05-07T02:41:22;14.70;;;12.40;;
31282;SDS011;17915;52.540;13.604;2023-05-07T02:43:47;18.37;;;10.93;;
31282;SDS011;17915;52.540;13.604;2023-05-07T02:46:12;19.37;;;12.13;;
31282;SDS011;17915;52.540;13.604;2023-05-07T02:48:38;17.70;;;12.30;;
31282;SDS011;17915;52.540;13.604;2023-05-07T02:51:03;16.37;;;12.70;;
31282;SDS011;17915;52.540;13.604;2023-05-07T02:53:30;15.30;;;12.35;;
31282;SDS011;17915;52.540;13.604;2023-05-07T02:55:56;15.70;;;11.37;;
31282;SDS011;17915;52.540;13.604;2023-05-07T02:58:23;16.70;;;10.35;;
31282;SDS011;17915;52.540;13.604;2023-05-07T03:00:48;16.53;;;11.53;;
31282;SDS011;17915;52.540;13.604;2023-05-07T03:03:14;13.80;;;10.83;;
31282;SDS011;17915;52.540;13.604;2023-05-07T03:05:40;15.02;;;11.38;;
31282;SDS011;17915;52.540;13.604;2023-05-07T03:08:05;11.97;;;10.73;;
31282;SDS011;17915;52.540;13.604;2023-05-07T03:10:31;19.50;;;12.70;;
31282;SDS011;17915;52.540;13.604;2023-05-07T03:12:56;12.50;;;11.20;;
31282;SDS011;17915;52.540;13.604;2023-05-07T03:15:22;15.07;;;11.33;;
31282;SDS011;17915;52.540;13.604;2023-05-07T03:17:47;16.83;;;11.00;;
31282;SDS011;17915;52.540;13.604;2023-05-07T03:20:13;13.73;;;10.13;;
31282;SDS011;17915;52.540;13.604;2023-05-07T03:22:38;18.53;;;9.87;;
31282;SDS011;17915;52.540;13.604;2023-05-07T03:25:04;13.13;;;10.53;;
31282;SDS011;17915;52.540;13.604;2023-05-07T03:27:30;10.98;;;9.85;;
31282;SDS011;17915;52.540;13.604;2023-05-07T03:29:55;20.67;;;11.97;;
31282;SDS011;17915;52.540;13.604;2023-05-07T03:32:21;14.03;;;10.37;;
31282;SDS011;17915;52.540;13.604;2023-05-07T03:34:46;16.67;;;10.70;;
31282;SDS011;17915;52.540;13.604;2023-05-07T03:37:13;11.75;;;10.32;;
31282;SDS011;17915;52.540;13.604;2023-05-07T03:39:38;15.80;;;11.03;;
31282;SDS011;17915;52.540;13.604;2023-05-07T03:42:03;13.57;;;10.20;;
31282;SDS011;17915;52.540;13.604;2023-05-07T03:44:29;15.73;;;9.83;;
31282;SDS011;17915;52.540;13.604;2023-05-07T03:46:54;13.47;;;9.87;;
31282;SDS011;17915;52.540;13.604;2023-05-07T03:49:20;15.33;;;10.53;;
31282;SDS011;17915;52.540;13.604;2023-05-07T03:51:46;15.73;;;9.57;;
31282;SDS011;17915;52.540;13.604;2023-05-07T03:54:11;11.73;;;9.13;;
31282;SDS011;17915;52.540;13.604;2023-05-07T03:56:36;28.73;;;10.07;;
31282;SDS011;17915;52.540;13.604;2023-05-07T03:59:02;16.23;;;10.23;;
31282;SDS011;17915;52.540;13.604;2023-05-07T04:01:27;17.27;;;10.50;;
31282;SDS011;17915;52.540;13.604;2023-05-07T04:03:53;15.30;;;10.20;;
31282;SDS011;17915;52.540;13.604;2023-05-07T04:06:18;13.80;;;11.20;;
31282;SDS011;17915;52.540;13.604;2023-05-07T04:08:43;10.97;;;9.87;;
31282;SDS011;17915;52.540;13.604;2023-05-07T04:11:09;12.23;;;9.20;;
31282;SDS011;17915;52.540;13.604;2023-05-07T04:13:34;13.73;;;9.40;;
31282;SDS011;17915;52.540;13.604;2023-05-07T04:16:01;16.13;;;9.33;;
31282;SDS011;17915;52.540;13.604;2023-05-07T04:18:27;10.00;;;8.95;;
31282;SDS011;17915;52.540;13.604;2023-05-07T04:20:52;13.23;;;9.30;;
31282;SDS011;17915;52.540;13.604;2023-05-07T04:23:18;12.67;;;8.47;;
31282;SDS011;17915;52.540;13.604;2023-05-07T04:25:43;15.73;;;9.63;;
31282;SDS011;17915;52.540;13.604;2023-05-07T04:28:08;11.93;;;9.07;;
31282;SDS011;17915;52.540;13.604;2023-05-07T04:30:34;21.00;;;8.40;;
31282;SDS011;17915;52.540;13.604;2023-05-07T04:32:59;12.53;;;9.47;;
31282;SDS011;17915;52.540;13.604;2023-05-07T04:35:25;13.43;;;9.03;;
31282;SDS011;17915;52.540;13.604;2023-05-07T04:37:50;10.90;;;9.80;;
31282;SDS011;17915;52.540;13.604;2023-05-07T04:40:15;14.13;;;9.33;;
31282;SDS011;17915;52.540;13.604;2023-05-07T04:42:41;11.80;;;9.47;;
31282;SDS011;17915;52.540;13.604;2023-05-07T04:45:06;7.97;;;6.87;;
31282;SDS011;17915;52.540;13.604;2023-05-07T04:47:33;12.15;;;8.65;;
31282;SDS011;17915;52.540;13.604;2023-05-07T04:49:59;14.90;;;8.00;;
31282;SDS011;17915;52.540;13.604;2023-05-07T04:52:24;9.37;;;7.90;;
31282;SDS011;17915;52.540;13.604;2023-05-07T04:54:50;9.47;;;7.63;;
31282;SDS011;17915;52.540;13.604;2023-05-07T04:57:15;15.43;;;8.50;;
31282;SDS011;17915;52.540;13.604;2023-05-07T05:02:07;10.18;;;8.43;;
31282;SDS011;17915;52.540;13.604;2023-05-07T05:04:34;11.77;;;9.32;;
31282;SDS011;17915;52.540;13.604;2023-05-07T05:07:00;10.63;;;8.60;;
31282;SDS011;17915;52.540;13.604;2023-05-07T05:09:25;12.77;;;7.43;;
31282;SDS011;17915;52.540;13.604;2023-05-07T05:11:50;9.40;;;7.60;;
31282;SDS011;17915;52.540;13.604;2023-05-07T05:14:16;9.73;;;7.17;;
31282;SDS011;17915;52.540;13.604;2023-05-07T05:16:41;11.80;;;8.83;;
31282;SDS011;17915;52.540;13.604;2023-05-07T05:19:07;11.60;;;8.17;;
31282;SDS011;17915;52.540;13.604;2023-05-07T05:21:32;8.53;;;7.63;;
31282;SDS011;17915;52.540;13.604;2023-05-07T05:23:58;12.13;;;8.30;;
31282;SDS011;17915;52.540;13.604;2023-05-07T05:26:23;13.30;;;8.57;;
31282;SDS011;17915;52.540;13.604;2023-05-07T05:28:49;13.97;;;9.63;;
31282;SDS011;17915;52.540;13.604;2023-05-07T05:31:14;10.87;;;8.67;;
31282;SDS011;17915;52.540;13.604;2023-05-07T05:33:40;12.45;;;7.82;;
31282;SDS011;17915;52.540;13.604;2023-05-07T05:36:06;14.77;;;9.60;;
31282;SDS011;17915;52.540;13.604;2023-05-07T05:38:34;10.23;;;8.02;;
31282;SDS011;17915;52.540;13.604;2023-05-07T05:40:59;13.20;;;7.90;;
31282;SDS011;17915;52.540;13.604;2023-05-07T05:43:25;15.53;;;10.40;;
31282;SDS011;17915;52.540;13.604;2023-05-07T05:45:50;10.60;;;7.97;;
31282;SDS011;17915;52.540;13.604;2023-05-07T05:48:16;8.43;;;7.63;;
31282;SDS011;17915;52.540;13.604;2023-05-07T05:50:41;9.50;;;8.33;;
31282;SDS011;17915;52.540;13.604;2023-05-07T05:53:07;10.27;;;8.30;;
31282;SDS011;17915;52.540;13.604;2023-05-07T05:55:32;13.13;;;7.27;;
31282;SDS011;17915;52.540;13.604;2023-05-07T05:57:58;11.67;;;7.70;;
31282;SDS011;17915;52.540;13.604;2023-05-07T06:00:27;12.48;;;8.20;;
31282;SDS011;17915;52.540;13.604;2023-05-07T06:02:52;10.57;;;7.60;;
31282;SDS011;17915;52.540;13.604;2023-05-07T06:05:18;8.90;;;6.77;;
31282;SDS011;17915;52.540;13.604;2023-05-07T06:07:43;10.30;;;7.27;;
31282;SDS011;17915;52.540;13.604;2023-05-07T06:10:08;8.37;;;6.87;;
31282;SDS011;17915;52.540;13.604;2023-05-07T06:12:34;7.80;;;6.60;;
31282;SDS011;17915;52.540;13.604;2023-05-07T06:14:59;9.47;;;7.07;;
31282;SDS011;17915;52.540;13.604;2023-05-07T06:17:25;9.33;;;7.97;;
31282;SDS011;17915;52.540;13.604;2023-05-07T06:19:50;10.30;;;6.97;;
31282;SDS011;17915;52.540;13.604;2023-05-07T06:22:16;9.55;;;6.90;;
31282;SDS011;17915;52.540;13.604;2023-05-07T06:24:41;9.10;;;6.67;;
31282;SDS011;17915;52.540;13.604;2023-05-07T06:27:06;6.77;;;6.13;;
31282;SDS011;17915;52.540;13.604;2023-05-07T06:29:32;7.23;;;6.47;;
31282;SDS011;17915;52.540;13.604;2023-05-07T06:32:05;10.88;;;6.97;;
31282;SDS011;17915;52.540;13.604;2023-05-07T06:34:31;6.70;;;6.05;;
31282;SDS011;17915;52.540;13.604;2023-05-07T06:36:57;10.40;;;5.83;;
31282;SDS011;17915;52.540;13.604;2023-05-07T06:39:23;6.43;;;5.67;;
31282;SDS011;17915;52.540;13.604;2023-05-07T06:41:48;9.10;;;5.87;;
31282;SDS011;17915;52.540;13.604;2023-05-07T06:44:13;10.30;;;6.20;;
31282;SDS011;17915;52.540;13.604;2023-05-07T06:46:39;5.53;;;5.05;;
31282;SDS011;17915;52.540;13.604;2023-05-07T06:49:06;7.03;;;6.20;;
31282;SDS011;17915;52.540;13.604;2023-05-07T06:51:31;6.13;;;5.63;;
31282;SDS011;17915;52.540;13.604;2023-05-07T06:53:56;5.73;;;5.20;;
31282;SDS011;17915;52.540;13.604;2023-05-07T06:56:22;7.13;;;6.20;;
31282;SDS011;17915;52.540;13.604;2023-05-07T06:58:48;6.18;;;5.63;;
31282;SDS011;17915;52.540;13.604;2023-05-07T07:01:13;7.17;;;6.37;;
31282;SDS011;17915;52.540;13.604;2023-05-07T07:03:40;7.75;;;5.18;;
31282;SDS011;17915;52.540;13.604;2023-05-07T07:06:05;5.70;;;5.20;;
31282;SDS011;17915;52.540;13.604;2023-05-07T07:08:31;7.67;;;5.93;;
31282;SDS011;17915;52.540;13.604;2023-05-07T07:10:57;11.13;;;5.97;;
31282;SDS011;17915;52.540;13.604;2023-05-07T07:13:22;5.28;;;4.78;;
31282;SDS011;17915;52.540;13.604;2023-05-07T07:15:48;6.23;;;5.63;;
31282;SDS011;17915;52.540;13.604;2023-05-07T07:18:13;4.73;;;4.23;;
31282;SDS011;17915;52.540;13.604;2023-05-07T07:20:39;5.90;;;5.30;;
31282;SDS011;17915;52.540;13.604;2023-05-07T07:23:04;4.70;;;4.27;;
31282;SDS011;17915;52.540;13.604;2023-05-07T07:25:30;4.07;;;3.77;;
31282;SDS011;17915;52.540;13.604;2023-05-07T07:27:55;8.70;;;5.30;;
31282;SDS011;17915;52.540;13.604;2023-05-07T07:30:21;7.03;;;4.47;;
31282;SDS011;17915;52.540;13.604;2023-05-07T07:32:46;6.90;;;5.20;;
31282;SDS011;17915;52.540;13.604;2023-05-07T07:35:12;4.60;;;4.30;;
31282;SDS011;17915;52.540;13.604;2023-05-07T07:37:37;6.23;;;3.93;;
31282;SDS011;17915;52.540;13.604;2023-05-07T07:40:03;4.17;;;3.77;;
31282;SDS011;17915;52.540;13.604;2023-05-07T07:42:29;3.83;;;3.58;;
31282;SDS011;17915;52.540;13.604;2023-05-07T07:44:54;4.50;;;3.63;;
31282;SDS011;17915;52.540;13.604;2023-05-07T07:47:20;6.00;;;3.90;;
31282;SDS011;17915;52.540;13.604;2023-05-07T07:49:45;4.00;;;3.70;;
31282;SDS011;17915;52.540;13.604;2023-05-07T07:52:10;6.73;;;3.87;;
31282;SDS011;17915;52.540;13.604;2023-05-07T07:54:36;12.00;;;4.20;;
31282;SDS011;17915;52.540;13.604;2023-05-07T07:57:01;6.00;;;3.93;;
31282;SDS011;17915;52.540;13.604;2023-05-07T07:59:27;4.67;;;3.60;;
31282;SDS011;17915;52.540;13.604;2023-05-07T08:01:52;8.40;;;3.67;;
31282;SDS011;17915;52.540;13.604;2023-05-07T08:04:20;4.10;;;3.55;;
31282;SDS011;17915;52.540;13.604;2023-05-07T08:06:46;4.07;;;3.45;;
31282;SDS011;17915;52.540;13.604;2023-05-07T08:09:11;6.87;;;3.60;;
31282;SDS011;17915;52.540;13.604;2023-05-07T08:11:37;3.35;;;3.00;;
31282;SDS011;17915;52.540;13.604;2023-05-07T08:14:03;5.57;;;3.67;;
31282;SDS011;17915;52.540;13.604;2023-05-07T08:16:28;3.83;;;3.53;;
31282;SDS011;17915;52.540;13.604;2023-05-07T08:18:54;7.47;;;3.23;;
31282;SDS011;17915;52.540;13.604;2023-05-07T08:21:19;4.03;;;3.73;;
31282;SDS011;17915;52.540;13.604;2023-05-07T08:23:45;3.40;;;3.10;;
31282;SDS011;17915;52.540;13.604;2023-05-07T08:26:10;6.47;;;3.80;;
31282;SDS011;17915;52.540;13.604;2023-05-07T08:28:36;4.20;;;3.47;;
31282;SDS011;17915;52.540;13.604;2023-05-07T08:31:01;2.93;;;2.70;;
31282;SDS011;17915;52.540;13.604;2023-05-07T08:33:27;4.00;;;3.60;;
31282;SDS011;17915;52.540;13.604;2023-05-07T08:35:52;3.27;;;2.97;;
31282;SDS011;17915;52.540;13.604;2023-05-07T08:38:17;6.60;;;3.37;;
31282;SDS011;17915;52.540;13.604;2023-05-07T08:40:43;4.63;;;2.73;;
31282;SDS011;17915;52.540;13.604;2023-05-07T08:43:08;2.80;;;2.70;;
31282;SDS011;17915;52.540;13.604;2023-05-07T08:45:39;6.28;;;3.50;;
31282;SDS011;17915;52.540;13.604;2023-05-07T08:48:08;6.05;;;3.00;;
31282;SDS011;17915;52.540;13.604;2023-05-07T08:50:35;4.13;;;2.72;;
31282;SDS011;17915;52.540;13.604;2023-05-07T08:53:02;5.93;;;3.15;;
31282;SDS011;17915;52.540;13.604;2023-05-07T08:55:28;5.55;;;2.38;;
31282;SDS011;17915;52.540;13.604;2023-05-07T08:57:55;4.10;;;3.25;;
31282;SDS011;17915;52.540;13.604;2023-05-07T09:00:20;3.50;;;3.20;;
31282;SDS011;17915;52.540;13.604;2023-05-07T09:02:45;4.30;;;3.30;;
31282;SDS011;17915;52.540;13.604;2023-05-07T09:05:11;2.77;;;2.57;;
31282;SDS011;17915;52.540;13.604;2023-05-07T09:07:36;2.87;;;2.67;;
31282;SDS011;17915;52.540;13.604;2023-05-07T09:10:02;2.90;;;2.67;;
31282;SDS011;17915;52.540;13.604;2023-05-07T09:12:29;3.42;;;2.65;;
31282;SDS011;17915;52.540;13.604;2023-05-07T09:14:55;6.10;;;3.20;;
31282;SDS011;17915;52.540;13.604;2023-05-07T09:17:20;11.83;;;4.17;;
31282;SDS011;17915;52.540;13.604;2023-05-07T09:19:46;2.80;;;2.60;;
31282;SDS011;17915;52.540;13.604;2023-05-07T09:22:12;3.25;;;2.53;;
31282;SDS011;17915;52.540;13.604;2023-05-07T09:24:38;4.97;;;2.97;;
31282;SDS011;17915;52.540;13.604;2023-05-07T09:27:03;4.50;;;2.50;;
31282;SDS011;17915;52.540;13.604;2023-05-07T09:29:30;2.53;;;2.33;;
31282;SDS011;17915;52.540;13.604;2023-05-07T09:32:00;4.72;;;2.30;;
31282;SDS011;17915;52.540;13.604;2023-05-07T09:34:32;2.83;;;2.63;;
31282;SDS011;17915;52.540;13.604;2023-05-07T09:37:04;4.78;;;2.40;;
31282;SDS011;17915;52.540;13.604;2023-05-07T09:42:11;2.60;;;2.40;;
31282;SDS011;17915;52.540;13.604;2023-05-07T09:44:39;3.97;;;2.28;;
31282;SDS011;17915;52.540;13.604;2023-05-07T09:47:05;5.97;;;2.60;;
31282;SDS011;17915;52.540;13.604;2023-05-07T09:49:33;2.38;;;2.17;;
31282;SDS011;17915;52.540;13.604;2023-05-07T09:52:01;3.80;;;2.35;;
31282;SDS011;17915;52.540;13.604;2023-05-07T09:54:27;10.80;;;7.95;;
31282;SDS011;17915;52.540;13.604;2023-05-07T09:56:55;2.13;;;2.03;;
31282;SDS011;17915;52.540;13.604;2023-05-07T09:59:22;2.33;;;2.08;;
31282;SDS011;17915;52.540;13.604;2023-05-07T10:01:47;2.77;;;2.00;;
31282;SDS011;17915;52.540;13.604;2023-05-07T10:04:14;3.70;;;2.17;;
31282;SDS011;17915;52.540;13.604;2023-05-07T10:06:39;2.10;;;1.90;;
31282;SDS011;17915;52.540;13.604;2023-05-07T10:09:05;2.00;;;1.90;;
31282;SDS011;17915;52.540;13.604;2023-05-07T10:11:34;2.07;;;1.87;;
31282;SDS011;17915;52.540;13.604;2023-05-07T10:14:00;3.45;;;1.70;;
31282;SDS011;17915;52.540;13.604;2023-05-07T10:16:31;1.80;;;1.70;;
31282;SDS011;17915;52.540;13.604;2023-05-07T10:19:07;2.67;;;1.95;;
31282;SDS011;17915;52.540;13.604;2023-05-07T10:21:35;2.65;;;2.05;;
31282;SDS011;17915;52.540;13.604;2023-05-07T10:24:47;5.53;;;1.95;;
31282;SDS011;17915;52.540;13.604;2023-05-07T10:26:52;2.22;;;1.90;;
31282;SDS011;17915;52.540;13.604;2023-05-07T10:34:25;1.83;;;1.73;;
31282;SDS011;17915;52.540;13.604;2023-05-07T10:36:53;2.65;;;1.95;;
31282;SDS011;17915;52.540;13.604;2023-05-07T10:39:20;6.57;;;2.45;;
31282;SDS011;17915;52.540;13.604;2023-05-07T10:41:46;1.80;;;1.70;;
31282;SDS011;17915;52.540;13.604;2023-05-07T10:44:12;1.90;;;1.80;;
31282;SDS011;17915;52.540;13.604;2023-05-07T10:52:16;6.33;;;1.63;;
31282;SDS011;17915;52.540;13.604;2023-05-07T10:54:43;3.00;;;1.35;;
31282;SDS011;17915;52.540;13.604;2023-05-07T10:59:53;2.10;;;1.77;;
31282;SDS011;17915;52.540;13.604;2023-05-07T11:02:19;3.87;;;2.17;;
31282;SDS011;17915;52.540;13.604;2023-05-07T11:04:44;3.27;;;2.20;;
31282;SDS011;17915;52.540;13.604;2023-05-07T11:07:29;2.45;;;2.35;;
31282;SDS011;17915;52.540;13.604;2023-05-07T11:09:56;4.65;;;1.92;;
31282;SDS011;17915;52.540;13.604;2023-05-07T11:15:05;1.70;;;1.60;;
31282;SDS011;17915;52.540;13.604;2023-05-07T11:17:31;2.20;;;2.08;;
31282;SDS011;17915;52.540;13.604;2023-05-07T11:19:59;7.00;;;3.80;;
31282;SDS011;17915;52.540;13.604;2023-05-07T11:25:00;2.25;;;2.05;;
31282;SDS011;17915;52.540;13.604;2023-05-07T11:27:26;2.13;;;1.92;;
31282;SDS011;17915;52.540;13.604;2023-05-07T11:29:52;1.90;;;1.80;;
31282;SDS011;17915;52.540;13.604;2023-05-07T11:32:28;5.78;;;1.80;;
31282;SDS011;17915;52.540;13.604;2023-05-07T11:34:55;1.80;;;1.70;;
31282;SDS011;17915;52.540;13.604;2023-05-07T11:37:21;3.13;;;1.60;;
31282;SDS011;17915;52.540;13.604;2023-05-07T11:39:48;3.17;;;2.60;;
31282;SDS011;17915;52.540;13.604;2023-05-07T11:42:27;2.28;;;2.17;;
31282;SDS011;17915;52.540;13.604;2023-05-07T11:44:57;3.13;;;1.63;;
31282;SDS011;17915;52.540;13.604;2023-05-07T11:47:23;2.93;;;1.60;;
31282;SDS011;17915;52.540;13.604;2023-05-07T11:49:50;2.25;;;2.10;;
31282;SDS011;17915;52.540;13.604;2023-05-07T11:52:17;1.77;;;1.65;;
31282;SDS011;17915;52.540;13.604;2023-05-07T11:57:18;2.78;;;2.10;;
31282;SDS011;17915;52.540;13.604;2023-05-07T11:59:44;2.40;;;1.65;;
31282;SDS011;17915;52.540;13.604;2023-05-07T12:02:09;1.83;;;1.73;;
31282;SDS011;17915;52.540;13.604;2023-05-07T12:04:35;2.10;;;1.90;;
31282;SDS011;17915;52.540;13.604;2023-05-07T12:07:01;2.55;;;1.90;;
31282;SDS011;17915;52.540;13.604;2023-05-07T12:09:26;1.57;;;1.47;;
31282;SDS011;17915;52.540;13.604;2023-05-07T12:11:51;1.93;;;1.80;;
31282;SDS011;17915;52.540;13.604;2023-05-07T12:14:17;4.07;;;1.77;;
31282;SDS011;17915;52.540;13.604;2023-05-07T12:16:43;1.90;;;1.80;;
31282;SDS011;17915;52.540;13.604;2023-05-07T12:19:08;2.95;;;1.63;;
31282;SDS011;17915;52.540;13.604;2023-05-07T12:21:37;1.63;;;1.52;;
31282;SDS011;17915;52.540;13.604;2023-05-07T12:24:03;1.83;;;1.52;;
31282;SDS011;17915;52.540;13.604;2023-05-07T12:26:29;2.00;;;1.90;;
31282;SDS011;17915;52.540;13.604;2023-05-07T12:29:05;1.80;;;1.70;;
31282;SDS011;17915;52.540;13.604;2023-05-07T12:31:31;1.80;;;1.70;;
31282;SDS011;17915;52.540;13.604;2023-05-07T12:33:56;2.20;;;2.10;;
31282;SDS011;17915;52.540;13.604;2023-05-07T12:36:22;4.47;;;1.70;;
31282;SDS011;17915;52.540;13.604;2023-05-07T12:38:49;5.10;;;1.63;;
31282;SDS011;17915;52.540;13.604;2023-05-07T12:41:15;5.55;;;1.73;;
31282;SDS011;17915;52.540;13.604;2023-05-07T12:43:41;2.40;;;1.70;;
31282;SDS011;17915;52.540;13.604;2023-05-07T12:46:09;1.73;;;1.30;;
31282;SDS011;17915;52.540;13.604;2023-05-07T12:48:37;1.97;;;1.87;;
31282;SDS011;17915;52.540;13.604;2023-05-07T12:51:03;2.25;;;2.08;;
31282;SDS011;17915;52.540;13.604;2023-05-07T12:53:30;3.35;;;1.52;;
31282;SDS011;17915;52.540;13.604;2023-05-07T12:55:57;1.80;;;1.70;;
31282;SDS011;17915;52.540;13.604;2023-05-07T12:58:30;3.28;;;1.80;;
31282;SDS011;17915;52.540;13.604;2023-05-07T13:00:59;4.15;;;1.48;;
31282;SDS011;17915;52.540;13.604;2023-05-07T13:03:29;1.73;;;1.63;;
31282;SDS011;17915;52.540;13.604;2023-05-07T13:06:00;3.33;;;1.80;;
31282;SDS011;17915;52.540;13.604;2023-05-07T13:08:28;2.35;;;2.25;;
31282;SDS011;17915;52.540;13.604;2023-05-07T13:10:55;3.67;;;1.80;;
31282;SDS011;17915;52.540;13.604;2023-05-07T13:13:21;2.58;;;2.15;;
31282;SDS011;17915;52.540;13.604;2023-05-07T13:15:47;2.07;;;1.80;;
31282;SDS011;17915;52.540;13.604;2023-05-07T13:18:12;2.30;;;2.20;;
31282;SDS011;17915;52.540;13.604;2023-05-07T13:20:38;1.30;;;1.30;;
31282;SDS011;17915;52.540;13.604;2023-05-07T13:23:03;2.30;;;1.83;;
31282;SDS011;17915;52.540;13.604;2023-05-07T13:25:29;2.15;;;1.60;;
31282;SDS011;17915;52.540;13.604;2023-05-07T13:27:56;1.70;;;1.60;;
31282;SDS011;17915;52.540;13.604;2023-05-07T13:30:22;2.17;;;1.98;;
31282;SDS011;17915;52.540;13.604;2023-05-07T13:32:47;2.23;;;1.53;;
31282;SDS011;17915;52.540;13.604;2023-05-07T13:35:14;10.05;;;2.35;;
31282;SDS011;17915;52.540;13.604;2023-05-07T13:37:39;1.83;;;1.73;;
31282;SDS011;17915;52.540;13.604;2023-05-07T13:40:05;2.37;;;2.20;;
31282;SDS011;17915;52.540;13.604;2023-05-07T13:42:31;3.35;;;2.10;;
31282;SDS011;17915;52.540;13.604;2023-05-07T13:44:56;1.80;;;1.70;;
31282;SDS011;17915;52.540;13.604;2023-05-07T13:47:22;5.33;;;1.90;;
31282;SDS011;17915;52.540;13.604;2023-05-07T13:49:47;1.60;;;1.50;;
31282;SDS011;17915;52.540;13.604;2023-05-07T13:52:15;3.55;;;1.70;;
31282;SDS011;17915;52.540;13.604;2023-05-07T13:54:41;1.70;;;1.60;;
31282;SDS011;17915;52.540;13.604;2023-05-07T13:57:06;1.77;;;1.67;;
31282;SDS011;17915;52.540;13.604;2023-05-07T13:59:31;2.40;;;2.20;;
31282;SDS011;17915;52.540;13.604;2023-05-07T14:01:57;1.90;;;1.80;;
31282;SDS011;17915;52.540;13.604;2023-05-07T14:04:22;3.80;;;2.23;;
31282;SDS011;17915;52.540;13.604;2023-05-07T14:06:47;2.20;;;2.10;;
31282;SDS011;17915;52.540;13.604;2023-05-07T14:09:13;2.23;;;2.03;;
31282;SDS011;17915;52.540;13.604;2023-05-07T14:11:38;6.03;;;2.13;;
31282;SDS011;17915;52.540;13.604;2023-05-07T14:14:04;1.85;;;1.75;;
31282;SDS011;17915;52.540;13.604;2023-05-07T14:16:30;9.30;;;5.53;;
31282;SDS011;17915;52.540;13.604;2023-05-07T14:18:55;2.67;;;2.00;;
31282;SDS011;17915;52.540;13.604;2023-05-07T14:21:21;3.03;;;1.80;;
31282;SDS011;17915;52.540;13.604;2023-05-07T14:23:46;3.63;;;2.97;;
31282;SDS011;17915;52.540;13.604;2023-05-07T14:26:12;2.53;;;2.40;;
31282;SDS011;17915;52.540;13.604;2023-05-07T14:28:37;1.60;;;1.50;;
31282;SDS011;17915;52.540;13.604;2023-05-07T14:31:04;1.70;;;1.58;;
31282;SDS011;17915;52.540;13.604;2023-05-07T14:33:31;2.55;;;2.45;;
31282;SDS011;17915;52.540;13.604;2023-05-07T14:35:56;9.73;;;2.23;;
31282;SDS011;17915;52.540;13.604;2023-05-07T14:38:21;1.37;;;1.30;;
31282;SDS011;17915;52.540;13.604;2023-05-07T14:40:47;1.97;;;1.70;;
31282;SDS011;17915;52.540;13.604;2023-05-07T14:43:12;2.27;;;1.30;;
31282;SDS011;17915;52.540;13.604;2023-05-07T14:45:38;1.17;;;1.13;;